createdAt,value
2018-12-02T00:00:52.393Z,9.00
2018-12-02T00:03:20.100Z,9.10
2018-12-02T00:05:48.749Z,9.10
2018-12-02T00:08:17.465Z,9.10
2018-12-02T00:10:45.946Z,9.10
2018-12-02T00:13:14.465Z,9.10
2018-12-02T00:15:43.154Z,9.10
2018-12-02T00:18:13.581Z,9.10
2018-12-02T00:20:42.605Z,9.10
2018-12-02T00:23:11.275Z,9.10
2018-12-02T00:25:39.799Z,9.10
2018-12-02T00:28:09.573Z,9.10
2018-12-02T00:30:38.485Z,9.10
2018-12-02T00:33:07.640Z,9.10
2018-12-02T00:35:36.217Z,9.10
2018-12-02T00:38:06.341Z,9.10
2018-12-02T00:40:34.877Z,9.10
2018-12-02T00:43:03.462Z,9.20
2018-12-02T00:45:33.221Z,9.10
2018-12-02T00:48:02.778Z,9.10
2018-12-02T00:50:31.238Z,9.10
2018-12-02T00:53:00.418Z,9.10
2018-12-02T00:55:35.597Z,9.10
2018-12-02T00:58:04.152Z,9.10
2018-12-02T01:00:32.606Z,9.10
2018-12-02T01:03:01.160Z,9.10
2018-12-02T01:05:29.665Z,9.10
2018-12-02T01:07:58.197Z,9.10
2018-12-02T01:10:26.932Z,9.10
2018-12-02T01:12:56.674Z,9.10
2018-12-02T01:15:26.585Z,9.10
2018-12-02T01:17:55.044Z,9.20
2018-12-02T01:20:24.164Z,9.20
2018-12-02T01:22:52.652Z,9.20
2018-12-02T01:25:21.258Z,9.20
2018-12-02T01:27:49.797Z,9.20
2018-12-02T01:30:21.408Z,9.20
2018-12-02T01:32:50.850Z,9.20
2018-12-02T01:35:19.540Z,9.20
2018-12-02T01:37:48.172Z,9.30
2018-12-02T01:40:17.654Z,9.30
2018-12-02T01:42:46.247Z,9.30
2018-12-02T01:45:18.896Z,9.30
2018-12-02T01:47:47.583Z,9.30
2018-12-02T01:50:17.982Z,9.30
2018-12-02T01:52:47.612Z,9.30
2018-12-02T01:55:16.289Z,9.30
2018-12-02T01:57:44.828Z,9.30
2018-12-02T02:00:14.773Z,9.30
2018-12-02T02:02:43.305Z,8.50
2018-12-02T02:05:11.849Z,9.30
2018-12-02T02:07:40.364Z,9.30
2018-12-02T02:10:12.445Z,9.30
2018-12-02T02:12:41.205Z,9.30
2018-12-02T02:15:11.254Z,9.30
2018-12-02T02:17:39.709Z,9.30
2018-12-02T02:20:16.033Z,9.40
2018-12-02T02:22:45.045Z,9.30
2018-12-02T02:25:14.651Z,9.30
2018-12-02T02:27:44.486Z,9.30
2018-12-02T02:30:14.242Z,9.30
2018-12-02T02:32:42.913Z,9.30
2018-12-02T02:35:11.941Z,9.30
2018-12-02T02:37:40.963Z,9.40
2018-12-02T02:40:16.494Z,9.40
2018-12-02T02:42:45.266Z,9.40
2018-12-02T02:45:14.438Z,9.40
2018-12-02T02:47:42.950Z,9.40
2018-12-02T02:50:17.282Z,9.40
2018-12-02T02:52:52.165Z,9.40
2018-12-02T02:55:20.766Z,9.40
2018-12-02T02:57:49.391Z,9.40
2018-12-02T03:00:19.686Z,9.40
2018-12-02T03:02:48.297Z,9.40
2018-12-02T03:05:17.347Z,9.40
2018-12-02T03:07:45.980Z,9.40
2018-12-02T03:10:18.558Z,9.40
2018-12-02T03:12:48.064Z,9.40
2018-12-02T03:15:17.518Z,9.40
2018-12-02T03:17:46.109Z,9.50
2018-12-02T03:20:17.639Z,9.50
2018-12-02T03:22:47.237Z,9.50
2018-12-02T03:25:16.993Z,9.50
2018-12-02T03:27:45.537Z,9.50
2018-12-02T03:30:16.003Z,9.60
2018-12-02T03:32:44.537Z,9.60
2018-12-02T03:35:15.302Z,9.60
2018-12-02T03:37:43.769Z,9.60
2018-12-02T03:40:17.188Z,9.60
2018-12-02T03:42:45.691Z,9.60
2018-12-02T03:45:17.493Z,9.60
2018-12-02T03:47:46.078Z,9.60
2018-12-02T03:50:18.143Z,9.60
2018-12-02T03:52:46.651Z,9.60
2018-12-02T03:55:15.424Z,9.60
2018-12-02T03:57:44.116Z,9.60
2018-12-02T04:00:13.861Z,9.60
2018-12-02T04:02:42.478Z,9.60
2018-12-02T04:05:12.021Z,9.70
2018-12-02T04:07:40.533Z,9.70
2018-12-02T04:10:14.209Z,9.70
2018-12-02T04:12:42.964Z,9.70
2018-12-02T04:15:14.269Z,9.70
2018-12-02T04:17:43.355Z,9.70
2018-12-02T04:20:12.865Z,9.70
2018-12-02T04:22:41.605Z,9.70
2018-12-02T04:25:11.499Z,9.60
2018-12-02T04:27:39.994Z,9.60
2018-12-02T04:30:13.881Z,9.60
2018-12-02T04:32:42.637Z,9.50
2018-12-02T04:35:25.865Z,9.40
2018-12-02T04:37:54.526Z,9.30
2018-12-02T04:40:23.001Z,9.20
2018-12-02T04:42:52.157Z,9.10
2018-12-02T04:45:21.050Z,9.10
2018-12-02T04:47:49.962Z,9.00
2018-12-02T04:50:23.727Z,8.90
2018-12-02T04:52:52.327Z,8.80
2018-12-02T04:55:20.813Z,8.70
2018-12-02T04:57:49.393Z,8.50
2018-12-02T05:00:18.932Z,8.50
2018-12-02T05:02:48.405Z,8.40
2018-12-02T05:05:24.568Z,8.40
2018-12-02T05:07:53.810Z,8.40
2018-12-02T05:10:22.763Z,8.30
2018-12-02T05:12:51.671Z,8.30
2018-12-02T05:15:21.205Z,8.20
2018-12-02T05:17:49.759Z,8.20
2018-12-02T05:20:19.977Z,8.20
2018-12-02T05:22:48.746Z,8.30
2018-12-02T05:25:18.627Z,8.20
2018-12-02T05:27:46.494Z,8.20
2018-12-02T05:30:17.906Z,8.20
2018-12-02T05:32:47.608Z,8.20
2018-12-02T05:35:16.084Z,8.20
2018-12-02T05:37:44.661Z,8.20
2018-12-02T05:40:15.170Z,8.20
2018-12-02T05:42:43.696Z,8.10
2018-12-02T05:45:14.382Z,8.20
2018-12-02T05:47:43.101Z,8.20
2018-12-02T05:50:13.953Z,8.10
2018-12-02T05:52:42.822Z,8.10
2018-12-02T05:55:12.781Z,8.10
2018-12-02T05:57:41.557Z,8.10
2018-12-02T06:00:12.678Z,8.10
2018-12-02T06:02:41.252Z,8.10
2018-12-02T06:05:10.919Z,8.10
2018-12-02T06:07:39.447Z,8.10
2018-12-02T06:10:11.505Z,8.10
2018-12-02T06:12:40.203Z,8.10
2018-12-02T06:15:13.097Z,8.10
2018-12-02T06:17:41.645Z,8.10
2018-12-02T06:20:26.855Z,8.10
2018-12-02T06:22:58.248Z,8.10
2018-12-02T06:25:26.792Z,8.10
2018-12-02T06:27:55.416Z,8.10
2018-12-02T06:30:25.146Z,8.10
2018-12-02T06:32:56.681Z,8.10
2018-12-02T06:35:25.419Z,8.10
2018-12-02T06:37:55.177Z,8.20
2018-12-02T06:40:25.538Z,8.20
2018-12-02T06:42:54.001Z,8.20
2018-12-02T06:45:22.889Z,8.20
2018-12-02T06:47:51.369Z,8.20
2018-12-02T06:50:21.925Z,8.20
2018-12-02T06:52:50.670Z,8.20
2018-12-02T06:55:30.711Z,8.20
2018-12-02T07:00:16.397Z,8.20
2018-12-02T07:03:49.861Z,8.20
2018-12-02T07:06:19.042Z,8.20
2018-12-02T07:08:47.547Z,8.20
2018-12-02T07:11:16.078Z,8.20
2018-12-02T07:13:44.624Z,8.20
2018-12-02T07:16:13.253Z,8.20
2018-12-02T07:18:43.225Z,8.20
2018-12-02T07:21:14.178Z,8.20
2018-12-02T07:23:45.153Z,8.20
2018-12-02T07:26:16.517Z,8.20
2018-12-02T07:28:45.221Z,8.20
2018-12-02T07:31:13.699Z,8.30
2018-12-02T07:33:42.301Z,8.30
2018-12-02T07:36:10.912Z,8.30
2018-12-02T07:39:52.653Z,8.30
2018-12-02T07:42:21.348Z,8.30
2018-12-02T07:44:49.886Z,8.30
2018-12-02T07:47:18.369Z,8.40
2018-12-02T07:49:46.856Z,8.40
2018-12-02T07:52:15.452Z,8.40
2018-12-02T07:54:44.082Z,8.40
2018-12-02T07:57:12.581Z,8.40
2018-12-02T07:59:41.222Z,8.40
2018-12-02T08:02:09.729Z,8.40
2018-12-02T08:04:38.378Z,8.50
2018-12-02T08:07:06.946Z,8.50
2018-12-02T08:09:35.506Z,8.50
2018-12-02T08:12:04.073Z,8.50
2018-12-02T08:14:32.788Z,8.50
2018-12-02T08:17:01.341Z,8.60
2018-12-02T08:19:29.837Z,8.50
2018-12-02T08:21:58.312Z,8.60
2018-12-02T08:24:26.925Z,8.50
2018-12-02T08:26:55.401Z,8.60
2018-12-02T08:29:23.862Z,8.60
2018-12-02T08:31:52.448Z,8.60
2018-12-02T08:34:20.976Z,8.60
2018-12-02T08:36:49.472Z,8.60
2018-12-02T08:39:18.062Z,8.60
2018-12-02T08:41:46.561Z,8.70
2018-12-02T08:44:15.060Z,8.70
2018-12-02T08:46:43.558Z,8.70
2018-12-02T08:49:12.074Z,8.70
2018-12-02T08:51:40.698Z,8.70
2018-12-02T08:54:09.261Z,8.80
2018-12-02T08:56:37.908Z,8.70
2018-12-02T08:59:06.488Z,8.80
2018-12-02T09:01:35.000Z,8.80
2018-12-02T09:04:03.747Z,8.80
2018-12-02T09:06:32.215Z,8.80
2018-12-02T09:09:00.736Z,8.80
2018-12-02T09:11:29.216Z,8.90
2018-12-02T09:13:57.985Z,8.90
2018-12-02T09:16:26.554Z,8.90
2018-12-02T09:18:55.081Z,8.90
2018-12-02T09:21:23.587Z,8.90
2018-12-02T09:23:52.041Z,9.00
2018-12-02T09:26:20.593Z,9.00
2018-12-02T09:28:49.277Z,9.00
2018-12-02T09:31:17.805Z,9.00
2018-12-02T09:33:46.251Z,9.00
2018-12-02T09:36:14.823Z,9.10
2018-12-02T09:38:43.402Z,9.10
2018-12-02T09:41:11.880Z,9.10
2018-12-02T09:43:40.568Z,9.10
2018-12-02T09:46:09.050Z,9.20
2018-12-02T09:48:37.560Z,9.20
2018-12-02T09:51:06.506Z,9.20
2018-12-02T09:53:35.063Z,9.20
2018-12-02T09:56:03.585Z,9.30
2018-12-02T09:58:32.202Z,9.30
2018-12-02T10:01:01.005Z,9.30
2018-12-02T10:03:29.584Z,9.30
2018-12-02T10:05:58.122Z,9.30
2018-12-02T10:08:26.703Z,9.30
2018-12-02T10:10:55.248Z,9.40
2018-12-02T10:13:24.332Z,9.40
2018-12-02T10:15:52.908Z,9.50
2018-12-02T10:18:21.398Z,9.50
2018-12-02T10:20:50.028Z,9.50
2018-12-02T10:23:18.711Z,9.50
2018-12-02T10:25:47.296Z,9.50
2018-12-02T10:28:15.816Z,9.50
2018-12-02T10:30:44.301Z,9.60
2018-12-02T10:33:12.850Z,9.60
2018-12-02T10:35:41.511Z,9.70
2018-12-02T10:38:10.041Z,9.70
2018-12-02T10:40:39.045Z,9.70
2018-12-02T10:43:07.851Z,9.70
2018-12-02T10:45:36.372Z,9.80
2018-12-02T10:48:08.123Z,9.80
2018-12-02T10:50:36.961Z,9.80
2018-12-02T10:53:14.967Z,9.80
2018-12-02T10:55:51.828Z,9.80
2018-12-02T10:58:24.506Z,9.80
2018-12-02T11:01:00.221Z,9.80
2018-12-02T11:03:29.005Z,9.80
2018-12-02T11:05:57.589Z,9.90
2018-12-02T11:08:26.119Z,9.80
2018-12-02T11:10:54.660Z,9.80
2018-12-02T11:13:23.497Z,9.90
2018-12-02T11:15:52.008Z,9.90
2018-12-02T11:18:20.505Z,10.00
2018-12-02T11:20:49.085Z,9.90
2018-12-02T11:23:17.668Z,9.90
2018-12-02T11:25:46.159Z,10.00
2018-12-02T11:28:14.731Z,10.00
2018-12-02T11:30:43.213Z,10.10
2018-12-02T11:33:11.978Z,10.10
2018-12-02T11:35:41.006Z,10.10
2018-12-02T11:38:09.634Z,10.10
2018-12-02T11:40:39.253Z,10.20
2018-12-02T11:43:08.759Z,10.20
2018-12-02T11:45:37.461Z,10.20
2018-12-02T11:48:07.598Z,10.20
2018-12-02T11:50:36.270Z,10.20
2018-12-02T11:53:05.181Z,10.30
2018-12-02T11:55:33.852Z,10.80
2018-12-02T11:58:02.321Z,10.50
2018-12-02T12:00:32.214Z,10.50
2018-12-02T12:03:01.013Z,10.50
2018-12-02T12:05:29.616Z,10.60
2018-12-02T12:07:58.282Z,10.60
2018-12-02T12:10:27.977Z,10.60
2018-12-02T12:13:00.594Z,10.70
2018-12-02T12:15:30.030Z,10.70
2018-12-02T12:17:59.265Z,10.70
2018-12-02T12:20:33.149Z,10.70
2018-12-02T12:23:01.788Z,10.70
2018-12-02T12:25:30.667Z,10.80
2018-12-02T12:27:59.630Z,10.80
2018-12-02T12:30:32.089Z,10.90
2018-12-02T12:33:01.204Z,10.90
2018-12-02T12:35:29.744Z,10.90
2018-12-02T12:37:58.389Z,10.90
2018-12-02T12:40:30.231Z,11.00
2018-12-02T12:43:36.055Z,11.00
2018-12-02T12:46:04.773Z,11.10
2018-12-02T12:48:33.279Z,11.20
2018-12-02T12:51:01.850Z,11.30
2018-12-02T12:53:30.365Z,11.40
2018-12-02T12:55:59.033Z,11.40
2018-12-02T12:58:27.617Z,11.50
2018-12-02T13:00:56.237Z,11.50
2018-12-02T13:03:24.726Z,11.50
2018-12-02T13:05:53.327Z,11.50
2018-12-02T13:08:21.909Z,11.50
2018-12-02T13:10:50.737Z,11.50
2018-12-02T13:13:19.323Z,11.50
2018-12-02T13:15:47.953Z,11.50
2018-12-02T13:18:16.677Z,11.50
2018-12-02T13:20:52.631Z,11.50
2018-12-02T13:23:21.405Z,11.50
2018-12-02T13:25:49.914Z,11.50
2018-12-02T13:28:18.437Z,11.50
2018-12-02T13:30:47.270Z,11.50
2018-12-02T13:33:15.938Z,11.50
2018-12-02T13:35:44.842Z,11.60
2018-12-02T13:38:13.340Z,11.60
2018-12-02T13:40:42.890Z,11.60
2018-12-02T13:43:15.732Z,11.60
2018-12-02T13:45:44.772Z,11.60
2018-12-02T13:48:13.289Z,11.60
2018-12-02T13:50:41.838Z,11.60
2018-12-02T13:53:10.444Z,11.60
2018-12-02T13:55:38.977Z,11.70
2018-12-02T13:58:07.702Z,11.60
2018-12-02T14:00:37.589Z,11.60
2018-12-02T14:03:11.605Z,11.60
2018-12-02T14:05:45.312Z,11.60
2018-12-02T14:08:14.091Z,11.70
2018-12-02T14:10:43.232Z,11.60
2018-12-02T14:13:19.250Z,11.70
2018-12-02T14:15:57.175Z,11.70
2018-12-02T14:18:35.348Z,11.80
2018-12-02T14:21:04.082Z,11.80
2018-12-02T14:23:32.807Z,11.80
2018-12-02T14:26:04.076Z,11.90
2018-12-02T14:28:37.054Z,11.90
2018-12-02T14:31:06.152Z,11.90
2018-12-02T14:33:35.876Z,11.90
2018-12-02T14:36:03.266Z,11.90
2018-12-02T14:38:31.785Z,11.90
2018-12-02T14:41:00.285Z,11.90
2018-12-02T14:43:28.838Z,11.90
2018-12-02T14:45:57.380Z,11.90
2018-12-02T14:48:25.962Z,11.80
2018-12-02T14:50:54.598Z,11.80
2018-12-02T14:53:23.235Z,11.90
2018-12-02T14:55:51.715Z,11.90
2018-12-02T14:58:20.299Z,11.90
2018-12-02T15:00:48.768Z,11.90
2018-12-02T15:03:17.366Z,11.90
2018-12-02T15:05:46.203Z,11.90
2018-12-02T15:08:14.842Z,11.90
2018-12-02T15:10:43.503Z,11.90
2018-12-02T15:13:12.203Z,11.90
2018-12-02T15:15:41.017Z,11.90
2018-12-02T15:18:09.553Z,11.90
2018-12-02T15:20:38.160Z,11.90
2018-12-02T15:23:07.252Z,11.80
2018-12-02T15:25:36.149Z,11.80
2018-12-02T15:28:04.723Z,11.80
2018-12-02T15:30:33.219Z,11.80
2018-12-02T15:33:01.769Z,11.90
2018-12-02T15:35:30.386Z,11.90
2018-12-02T15:37:58.809Z,11.90
2018-12-02T15:40:27.466Z,12.00
2018-12-02T15:42:56.120Z,12.00
2018-12-02T15:45:24.730Z,12.00
2018-12-02T15:47:53.290Z,12.00
2018-12-02T15:50:23.144Z,12.00
2018-12-02T15:52:52.032Z,12.00
2018-12-02T15:55:23.259Z,12.00
2018-12-02T15:57:51.970Z,12.00
2018-12-02T16:00:24.696Z,12.00
2018-12-02T16:02:53.394Z,12.00
2018-12-02T16:05:21.906Z,12.00
2018-12-02T16:07:50.514Z,12.00
2018-12-02T16:10:19.043Z,12.10
2018-12-02T16:12:48.847Z,12.10
2018-12-02T16:15:19.553Z,12.10
2018-12-02T16:17:49.340Z,12.00
2018-12-02T16:20:19.329Z,12.00
2018-12-02T16:22:48.166Z,12.00
2018-12-02T16:25:16.769Z,12.00
2018-12-02T16:27:45.360Z,12.00
2018-12-02T16:30:15.064Z,12.00
2018-12-02T16:32:47.945Z,12.00
2018-12-02T16:35:17.000Z,12.00
2018-12-02T16:37:46.685Z,12.00
2018-12-02T16:40:23.087Z,12.00
2018-12-02T16:42:52.765Z,12.00
2018-12-02T16:45:21.309Z,12.00
2018-12-02T16:47:51.418Z,12.00
2018-12-02T16:50:36.308Z,12.00
2018-12-02T16:53:11.645Z,12.00
2018-12-02T16:55:46.216Z,12.00
2018-12-02T16:58:21.473Z,12.00
2018-12-02T17:00:56.176Z,12.00
2018-12-02T17:03:24.801Z,12.00
2018-12-02T17:05:53.387Z,12.00
2018-12-02T17:08:21.901Z,12.00
2018-12-02T17:10:50.803Z,12.00
2018-12-02T17:13:18.896Z,12.10
2018-12-02T17:15:47.510Z,12.10
2018-12-02T17:18:15.992Z,12.10
2018-12-02T17:20:44.526Z,12.10
2018-12-02T17:23:13.024Z,12.10
2018-12-02T17:25:41.596Z,12.10
2018-12-02T17:28:10.065Z,12.10
2018-12-02T17:30:43.793Z,12.10
2018-12-02T17:33:12.299Z,12.10
2018-12-02T17:35:40.875Z,12.10
2018-12-02T17:38:09.881Z,12.10
2018-12-02T17:40:38.360Z,12.10
2018-12-02T17:43:09.136Z,12.10
2018-12-02T17:45:37.742Z,12.10
2018-12-02T17:48:06.893Z,12.10
2018-12-02T17:50:35.559Z,12.10
2018-12-02T17:53:04.366Z,12.10
2018-12-02T17:55:32.967Z,12.10
2018-12-02T17:58:01.585Z,12.10
2018-12-02T18:00:30.106Z,12.10
2018-12-02T18:03:00.060Z,12.10
2018-12-02T18:05:30.532Z,12.10
2018-12-02T18:07:59.178Z,12.10
2018-12-02T18:10:27.673Z,12.10
2018-12-02T18:12:56.276Z,12.10
2018-12-02T18:15:24.845Z,12.10
2018-12-02T18:17:53.545Z,12.10
2018-12-02T18:20:22.042Z,12.10
2018-12-02T18:22:50.603Z,12.10
2018-12-02T18:25:19.668Z,12.10
2018-12-02T18:27:48.242Z,12.10
2018-12-02T18:30:24.516Z,12.10
2018-12-02T18:33:00.934Z,12.10
2018-12-02T18:35:39.509Z,12.10
2018-12-02T18:38:12.881Z,12.10
2018-12-02T18:40:43.844Z,12.20
2018-12-02T18:43:12.447Z,12.20
2018-12-02T18:45:40.943Z,12.20
2018-12-02T18:48:09.459Z,12.20
2018-12-02T18:50:37.991Z,12.20
2018-12-02T18:53:06.963Z,12.20
2018-12-02T18:55:35.462Z,12.20
2018-12-02T18:58:04.183Z,12.20
2018-12-02T19:00:37.963Z,12.20
2018-12-02T19:03:06.501Z,12.20
2018-12-02T19:05:35.135Z,12.20
2018-12-02T19:08:03.736Z,12.20
2018-12-02T19:10:32.284Z,12.20
2018-12-02T19:13:00.995Z,12.30
2018-12-02T19:15:29.560Z,12.30
2018-12-02T19:17:58.084Z,12.20
2018-12-02T19:20:29.164Z,12.20
2018-12-02T19:23:00.261Z,12.30
2018-12-02T19:25:29.785Z,12.30
2018-12-02T19:27:58.517Z,12.20
2018-12-02T19:30:27.105Z,12.30
2018-12-02T19:32:55.876Z,12.30
2018-12-02T19:35:28.093Z,12.30
2018-12-02T19:38:03.153Z,12.30
2018-12-02T19:40:32.071Z,12.30
2018-12-02T19:43:00.597Z,12.30
2018-12-02T19:45:29.189Z,12.30
2018-12-02T19:47:57.736Z,12.30
2018-12-02T19:50:26.260Z,12.30
2018-12-02T19:52:54.786Z,12.30
2018-12-02T19:55:23.466Z,12.30
2018-12-02T19:57:52.245Z,12.30
2018-12-02T20:00:58.423Z,12.30
2018-12-02T20:03:26.270Z,12.30
2018-12-02T20:05:54.810Z,12.30
2018-12-02T20:08:23.315Z,12.30
2018-12-02T20:10:53.523Z,12.30
2018-12-02T20:13:23.133Z,12.30
2018-12-02T20:15:57.749Z,12.20
2018-12-02T20:18:26.773Z,12.20
2018-12-02T20:20:58.239Z,12.20
2018-12-02T20:23:31.907Z,12.20
2018-12-02T20:26:02.466Z,12.20
2018-12-02T20:28:35.746Z,12.20
2018-12-02T20:31:10.010Z,12.20
2018-12-02T20:33:38.821Z,12.20
2018-12-02T20:36:07.944Z,12.10
2018-12-02T20:38:36.493Z,12.10
2018-12-02T20:41:05.437Z,12.10
2018-12-02T20:43:34.020Z,12.00
2018-12-02T20:46:02.700Z,12.00
2018-12-02T20:48:31.211Z,12.00
2018-12-02T20:50:59.699Z,12.00
2018-12-02T20:53:28.233Z,12.00
2018-12-02T20:55:56.774Z,12.00
2018-12-02T20:58:25.597Z,12.00
2018-12-02T21:00:54.105Z,12.00
2018-12-02T21:03:25.462Z,12.00
2018-12-02T21:06:03.807Z,12.00
2018-12-02T21:08:32.541Z,12.00
2018-12-02T21:11:01.478Z,11.90
2018-12-02T21:13:29.948Z,11.90
2018-12-02T21:15:58.522Z,11.90
2018-12-02T21:18:27.087Z,11.90
2018-12-02T21:20:55.622Z,11.90
2018-12-02T21:23:24.125Z,11.90
2018-12-02T21:25:53.053Z,12.00
2018-12-02T21:28:23.713Z,12.00
2018-12-02T21:30:52.199Z,12.00
2018-12-02T21:33:20.686Z,12.00
2018-12-02T21:35:49.782Z,12.00
2018-12-02T21:38:18.345Z,12.00
2018-12-02T21:40:46.903Z,12.00
2018-12-02T21:43:15.494Z,12.00
2018-12-02T21:45:44.046Z,12.10
2018-12-02T21:48:14.405Z,12.10
2018-12-02T21:50:44.039Z,12.10
2018-12-02T21:53:12.638Z,12.00
2018-12-02T21:55:41.117Z,12.00
2018-12-02T21:58:09.717Z,11.90
2018-12-02T22:00:44.392Z,11.90
2018-12-02T22:03:14.087Z,11.90
2018-12-02T22:05:43.013Z,11.80
2018-12-02T22:08:11.632Z,11.90
2018-12-02T22:10:40.419Z,11.80
2018-12-02T22:13:09.417Z,11.80
2018-12-02T22:15:38.477Z,11.80
2018-12-02T22:18:07.208Z,11.80
2018-12-02T22:20:35.728Z,11.80
2018-12-02T22:23:04.582Z,11.80
2018-12-02T22:25:33.146Z,11.80
2018-12-02T22:28:01.656Z,11.80
2018-12-02T22:30:30.178Z,11.80
2018-12-02T22:32:58.837Z,11.80
2018-12-02T22:35:27.320Z,11.80
2018-12-02T22:37:55.810Z,11.80
2018-12-02T22:40:25.350Z,11.80
2018-12-02T22:42:54.992Z,11.80
2018-12-02T22:45:28.145Z,11.80
2018-12-02T22:47:56.758Z,11.80
2018-12-02T22:50:28.261Z,11.90
2018-12-02T22:52:57.977Z,11.90
2018-12-02T22:55:26.585Z,11.90
2018-12-02T22:57:55.084Z,11.90
2018-12-02T23:00:38.001Z,12.00
2018-12-02T23:03:11.772Z,12.00
2018-12-02T23:05:41.260Z,12.00
2018-12-02T23:08:09.809Z,12.00
2018-12-02T23:10:38.530Z,12.00
2018-12-02T23:13:08.999Z,12.00
2018-12-02T23:15:38.361Z,12.00
2018-12-02T23:18:46.550Z,12.00
2018-12-02T23:21:26.571Z,12.00
2018-12-02T23:24:06.667Z,12.00
2018-12-02T23:26:46.831Z,12.00
2018-12-02T23:29:27.747Z,12.10
2018-12-02T23:32:08.772Z,12.10
2018-12-02T23:34:49.499Z,12.10
2018-12-02T23:37:30.337Z,12.10
2018-12-02T23:40:10.495Z,12.10
2018-12-02T23:42:51.327Z,12.10
2018-12-02T23:45:32.080Z,12.10
2018-12-02T23:48:12.208Z,12.00
2018-12-02T23:50:53.063Z,12.00
2018-12-02T23:53:33.994Z,12.00
2018-12-02T23:56:14.930Z,11.90
2018-12-02T23:58:54.984Z,12.00
